createdAt,value
2018-10-16T00:01:43.391Z,76.32
2018-10-16T00:04:47.977Z,76.47
2018-10-16T00:07:51.896Z,76.37
2018-10-16T00:10:55.822Z,76.10
2018-10-16T00:13:59.755Z,76.68
2018-10-16T00:17:04.267Z,75.83
2018-10-16T00:20:08.199Z,76.86
2018-10-16T00:23:12.139Z,75.92
2018-10-16T00:26:16.080Z,76.32
2018-10-16T00:29:20.516Z,76.31
2018-10-16T00:32:24.461Z,76.01
2018-10-16T00:35:28.396Z,76.22
2018-10-16T00:38:32.361Z,76.48
2018-10-16T00:41:36.572Z,76.54
2018-10-16T00:44:40.521Z,76.29
2018-10-16T00:47:44.657Z,76.55
2018-10-16T00:50:48.592Z,76.30
2018-10-16T00:53:52.851Z,76.19
2018-10-16T00:56:57.154Z,76.40
2018-10-16T01:00:01.282Z,76.64
2018-10-16T01:03:05.486Z,76.72
2018-10-16T01:06:09.606Z,76.75
2018-10-16T01:09:14.549Z,76.76
2018-10-16T01:12:18.498Z,76.41
2018-10-16T01:15:22.436Z,75.86
2018-10-16T01:18:26.583Z,76.31
2018-10-16T01:21:30.555Z,76.45
2018-10-16T01:24:35.134Z,76.75
2018-10-16T01:27:39.666Z,76.02
2018-10-16T01:30:43.579Z,76.12
2018-10-16T01:33:47.534Z,76.54
2018-10-16T01:36:51.701Z,77.00
2018-10-16T01:39:55.622Z,76.49
2018-10-16T01:42:59.554Z,76.42
2018-10-16T01:46:03.711Z,76.43
2018-10-16T01:49:07.635Z,77.23
2018-10-16T01:52:11.570Z,76.42
2018-10-16T01:55:15.691Z,76.74
2018-10-16T01:58:19.959Z,76.71
2018-10-16T02:01:24.232Z,76.73
2018-10-16T02:04:28.154Z,76.22
2018-10-16T02:07:32.089Z,76.32
2018-10-16T02:10:36.044Z,77.01
2018-10-16T02:13:39.963Z,77.37
2018-10-16T02:16:43.904Z,77.47
2018-10-16T02:19:47.843Z,77.24
2018-10-16T02:22:51.761Z,76.59
2018-10-16T02:25:55.676Z,77.05
2018-10-16T02:28:59.603Z,76.38
2018-10-16T02:32:03.536Z,77.33
2018-10-16T02:35:08.396Z,76.81
2018-10-16T02:38:12.553Z,76.70
2018-10-16T02:41:16.469Z,77.22
2018-10-16T02:44:20.614Z,77.34
2018-10-16T02:47:24.534Z,76.87
2018-10-16T02:50:28.807Z,77.27
2018-10-16T02:53:32.727Z,76.97
2018-10-16T02:56:36.647Z,77.15
2018-10-16T02:59:40.765Z,76.98
2018-10-16T03:02:44.979Z,77.31
2018-10-16T03:05:48.896Z,77.50
2018-10-16T03:08:53.056Z,78.13
2018-10-16T03:11:57.329Z,77.80
2018-10-16T03:15:01.254Z,77.66
2018-10-16T03:18:05.598Z,77.67
2018-10-16T03:21:09.841Z,77.13
2018-10-16T03:24:13.780Z,76.78
2018-10-16T03:27:18.040Z,77.17
2018-10-16T03:30:22.205Z,76.82
2018-10-16T03:33:26.120Z,77.42
2018-10-16T03:36:30.379Z,76.95
2018-10-16T03:39:34.299Z,76.86
2018-10-16T03:42:39.372Z,77.47
2018-10-16T03:45:43.279Z,76.87
2018-10-16T03:48:47.402Z,76.99
2018-10-16T03:51:51.530Z,77.97
2018-10-16T03:54:55.467Z,78.13
2018-10-16T03:57:59.592Z,78.90
2018-10-16T04:01:03.523Z,78.93
2018-10-16T04:04:07.781Z,79.30
2018-10-16T04:07:12.023Z,78.66
2018-10-16T04:10:15.930Z,78.90
2018-10-16T04:13:19.873Z,78.94
2018-10-16T04:16:23.815Z,78.10
2018-10-16T04:19:27.723Z,78.12
2018-10-16T04:22:31.720Z,79.33
2018-10-16T04:25:35.766Z,79.38
2018-10-16T04:28:39.781Z,78.76
2018-10-16T04:31:43.702Z,78.19
2018-10-16T04:34:47.621Z,78.30
2018-10-16T04:37:51.547Z,77.77
2018-10-16T04:40:55.633Z,78.25
2018-10-16T04:43:59.759Z,77.53
2018-10-16T04:47:03.675Z,78.05
2018-10-16T04:50:08.011Z,77.36
2018-10-16T04:53:11.907Z,78.03
2018-10-16T04:56:16.180Z,78.13
2018-10-16T04:59:20.099Z,77.19
2018-10-16T05:02:24.043Z,78.10
2018-10-16T05:05:28.009Z,77.43
2018-10-16T05:08:31.943Z,77.69
2018-10-16T05:11:40.024Z,77.78
2018-10-16T05:14:43.975Z,77.94
2018-10-16T05:17:47.903Z,77.69
2018-10-16T05:20:51.832Z,77.77
2018-10-16T05:23:55.756Z,77.46
2018-10-16T05:26:59.704Z,77.74
2018-10-16T05:30:03.942Z,78.22
2018-10-16T05:33:07.885Z,77.82
2018-10-16T05:36:12.140Z,77.60
2018-10-16T05:39:16.090Z,77.77
2018-10-16T05:42:20.207Z,77.23
2018-10-16T05:45:25.661Z,77.62
2018-10-16T05:48:29.602Z,77.26
2018-10-16T05:51:33.517Z,78.08
2018-10-16T05:54:37.452Z,77.50
2018-10-16T05:57:41.374Z,78.06
2018-10-16T06:00:46.557Z,79.17
2018-10-16T06:03:50.663Z,78.52
2018-10-16T06:06:55.167Z,79.64
2018-10-16T06:09:59.092Z,79.26
2018-10-16T06:13:03.086Z,79.71
2018-10-16T06:16:07.032Z,79.25
2018-10-16T06:19:11.148Z,79.47
2018-10-16T06:22:15.076Z,78.47
2018-10-16T06:25:19.019Z,79.23
2018-10-16T06:28:24.537Z,79.19
2018-10-16T06:31:28.492Z,79.31
2018-10-16T06:34:32.407Z,79.43
2018-10-16T06:37:36.400Z,79.03
2018-10-16T06:40:40.396Z,79.35
2018-10-16T06:43:44.498Z,78.73
2018-10-16T06:46:48.604Z,79.07
2018-10-16T06:49:52.726Z,79.09
2018-10-16T06:52:56.654Z,78.83
2018-10-16T06:56:00.586Z,79.30
2018-10-16T06:59:04.660Z,79.34
2018-10-16T07:02:08.889Z,78.65
2018-10-16T07:05:13.155Z,79.32
2018-10-16T07:08:17.444Z,79.38
2018-10-16T07:11:21.366Z,79.21
2018-10-16T07:14:25.296Z,79.57
2018-10-16T07:17:29.189Z,79.10
2018-10-16T07:20:33.119Z,79.24
2018-10-16T07:23:37.153Z,79.51
2018-10-16T07:26:41.175Z,79.65
2018-10-16T07:29:45.078Z,79.30
2018-10-16T07:32:49.344Z,79.46
2018-10-16T07:35:53.265Z,79.42
2018-10-16T07:38:57.515Z,79.19
2018-10-16T07:42:01.854Z,78.80
2018-10-16T07:45:06.750Z,78.64
2018-10-16T07:48:10.856Z,79.33
2018-10-16T07:51:14.964Z,79.32
2018-10-16T07:54:19.295Z,79.08
2018-10-16T07:57:23.662Z,79.61
2018-10-16T08:00:28.015Z,79.65
2018-10-16T08:03:31.938Z,79.25
2018-10-16T08:06:35.887Z,79.27
2018-10-16T08:09:39.796Z,78.67
2018-10-16T08:12:44.460Z,79.29
2018-10-16T08:15:48.340Z,79.70
2018-10-16T08:18:52.267Z,79.08
2018-10-16T08:21:56.195Z,78.99
2018-10-16T08:25:00.650Z,78.91
2018-10-16T08:28:04.787Z,79.28
2018-10-16T08:31:08.712Z,79.56
2018-10-16T08:34:12.869Z,79.04
2018-10-16T08:37:22.879Z,78.71
2018-10-16T08:40:26.884Z,78.48
2018-10-16T08:43:42.772Z,78.77
2018-10-16T08:46:58.037Z,77.85
2018-10-16T08:50:13.496Z,78.39
2018-10-16T08:53:17.433Z,78.01
2018-10-16T08:56:21.708Z,77.76
2018-10-16T08:59:26.338Z,77.62
2018-10-16T09:02:30.290Z,77.58
2018-10-16T09:05:34.211Z,77.84
2018-10-16T09:08:38.171Z,78.57
2018-10-16T09:11:42.804Z,77.75
2018-10-16T09:14:46.739Z,78.76
2018-10-16T09:17:50.676Z,78.91
2018-10-16T09:20:55.327Z,78.54
2018-10-16T09:23:59.247Z,77.82
2018-10-16T09:27:03.391Z,77.91
2018-10-16T09:30:09.623Z,77.60
2018-10-16T09:33:13.530Z,77.85
2018-10-16T09:36:18.048Z,78.49
2018-10-16T09:39:21.999Z,78.02
2018-10-16T09:42:26.259Z,78.61
2018-10-16T09:45:30.177Z,78.59
2018-10-16T09:48:34.130Z,77.93
2018-10-16T09:51:38.068Z,78.74
2018-10-16T09:54:42.251Z,78.26
2018-10-16T09:57:46.178Z,77.80
2018-10-16T10:00:56.089Z,77.57
2018-10-16T10:04:00.116Z,78.27
2018-10-16T10:07:04.229Z,77.76
2018-10-16T10:10:08.342Z,77.95
2018-10-16T10:13:12.267Z,77.86
2018-10-16T10:16:16.192Z,78.14
2018-10-16T10:19:20.121Z,78.06
2018-10-16T10:22:24.247Z,78.49
2018-10-16T10:25:28.173Z,78.24
2018-10-16T10:28:32.106Z,78.16
2018-10-16T10:31:36.058Z,78.09
2018-10-16T10:34:40.174Z,78.43
2018-10-16T10:37:44.273Z,77.12
2018-10-16T10:40:48.398Z,77.62
2018-10-16T10:43:52.320Z,77.66
2018-10-16T10:46:56.246Z,78.26
2018-10-16T10:50:00.644Z,77.65
2018-10-16T10:53:04.909Z,77.45
2018-10-16T10:56:08.822Z,78.22
2018-10-16T10:59:12.737Z,77.55
2018-10-16T11:02:16.694Z,77.39
2018-10-16T11:05:20.970Z,77.49
2018-10-16T11:08:24.978Z,77.87
2018-10-16T11:11:28.931Z,78.13
2018-10-16T11:14:33.206Z,78.01
2018-10-16T11:17:37.903Z,77.50
2018-10-16T11:20:41.826Z,77.90
2018-10-16T11:23:45.753Z,77.52
2018-10-16T11:26:49.750Z,77.32
2018-10-16T11:29:53.674Z,77.27
2018-10-16T11:32:57.628Z,77.46
2018-10-16T11:36:02.086Z,77.15
2018-10-16T11:39:08.747Z,77.87
2018-10-16T11:42:12.787Z,77.30
2018-10-16T11:45:16.723Z,77.22
2018-10-16T11:48:20.666Z,77.66
2018-10-16T11:51:24.819Z,77.84
2018-10-16T11:54:28.749Z,77.58
2018-10-16T11:57:32.720Z,77.81
2018-10-16T12:00:36.991Z,77.81
2018-10-16T12:03:40.927Z,77.83
2018-10-16T12:06:45.203Z,77.13
2018-10-16T12:09:49.360Z,77.05
2018-10-16T12:12:53.332Z,77.26
2018-10-16T12:15:57.416Z,77.05
2018-10-16T12:19:06.141Z,77.08
2018-10-16T12:22:10.582Z,76.85
2018-10-16T12:25:14.755Z,77.75
2018-10-16T12:28:18.856Z,77.16
2018-10-16T12:31:22.803Z,77.19
2018-10-16T12:34:26.998Z,77.63
2018-10-16T12:37:30.914Z,77.00
2018-10-16T12:40:34.854Z,77.05
2018-10-16T12:43:38.942Z,77.42
2018-10-16T12:46:42.922Z,77.61
2018-10-16T12:49:46.866Z,76.96
2018-10-16T12:52:50.831Z,76.98
2018-10-16T12:55:54.967Z,76.72
2018-10-16T12:58:59.088Z,77.51
2018-10-16T13:02:03.520Z,77.39
2018-10-16T13:05:07.676Z,76.84
2018-10-16T13:08:12.266Z,76.63
2018-10-16T13:11:16.688Z,77.40
2018-10-16T13:14:20.751Z,76.67
2018-10-16T13:17:25.004Z,77.16
2018-10-16T13:20:29.382Z,77.30
2018-10-16T13:23:33.350Z,76.75
2018-10-16T13:26:37.768Z,77.45
2018-10-16T13:29:41.761Z,77.50
2018-10-16T13:32:46.691Z,77.47
2018-10-16T13:35:50.639Z,77.22
2018-10-16T13:38:54.555Z,76.59
2018-10-16T13:41:58.517Z,76.96
2018-10-16T13:45:03.108Z,76.78
2018-10-16T13:48:07.436Z,76.54
2018-10-16T13:51:11.382Z,77.45
2018-10-16T13:54:15.506Z,77.13
2018-10-16T13:57:19.451Z,77.39
2018-10-16T14:00:23.745Z,76.52
2018-10-16T14:03:27.704Z,77.10
2018-10-16T14:06:31.685Z,76.57
2018-10-16T14:09:35.629Z,76.39
2018-10-16T14:12:40.850Z,77.02
2018-10-16T14:15:44.795Z,76.55
2018-10-16T14:18:48.736Z,76.97
2018-10-16T14:21:52.695Z,76.47
2018-10-16T14:24:57.162Z,77.35
2018-10-16T14:28:01.453Z,76.69
2018-10-16T14:31:05.866Z,77.00
2018-10-16T14:34:10.071Z,76.44
2018-10-16T14:37:14.129Z,77.26
2018-10-16T14:40:18.120Z,76.96
2018-10-16T14:43:22.264Z,76.64
2018-10-16T14:46:26.452Z,77.31
2018-10-16T14:49:30.709Z,77.01
2018-10-16T14:52:34.877Z,77.25
2018-10-16T14:55:38.807Z,77.36
2018-10-16T14:58:42.728Z,77.63
2018-10-16T15:01:46.990Z,76.63
2018-10-16T15:04:51.037Z,77.01
2018-10-16T15:07:54.951Z,76.38
2018-10-16T15:10:59.407Z,76.68
2018-10-16T15:14:03.594Z,76.86
2018-10-16T15:17:07.695Z,76.66
2018-10-16T15:20:12.053Z,76.65
2018-10-16T15:23:16.083Z,77.41
2018-10-16T15:26:20.011Z,77.59
2018-10-16T15:29:23.939Z,77.05
2018-10-16T15:32:27.875Z,77.27
2018-10-16T15:35:32.165Z,77.37
2018-10-16T15:38:36.231Z,77.75
2018-10-16T15:41:40.509Z,77.52
2018-10-16T15:44:44.754Z,77.06
2018-10-16T15:47:48.710Z,77.66
2018-10-16T15:50:52.685Z,77.68
2018-10-16T15:53:56.815Z,77.08
2018-10-16T15:57:00.879Z,77.05
2018-10-16T16:00:07.176Z,77.36
2018-10-16T16:03:11.235Z,77.57
2018-10-16T16:06:15.170Z,77.83
2018-10-16T16:09:19.081Z,77.42
2018-10-16T16:12:23.029Z,77.64
2018-10-16T16:15:27.132Z,77.77
2018-10-16T16:18:31.095Z,77.73
2018-10-16T16:21:35.186Z,77.42
2018-10-16T16:24:39.186Z,77.30
2018-10-16T16:27:43.460Z,78.02
2018-10-16T16:30:47.578Z,77.50
2018-10-16T16:33:51.530Z,77.90
2018-10-16T16:36:57.363Z,78.19
2018-10-16T16:40:01.704Z,77.71
2018-10-16T16:43:06.027Z,77.33
2018-10-16T16:46:10.041Z,77.59
2018-10-16T16:49:14.091Z,77.69
2018-10-16T16:52:18.014Z,78.12
2018-10-16T16:55:22.274Z,77.45
2018-10-16T16:58:26.216Z,78.29
2018-10-16T17:01:30.154Z,77.55
2018-10-16T17:04:34.117Z,78.64
2018-10-16T17:07:38.219Z,77.75
2018-10-16T17:10:42.487Z,77.52
2018-10-16T17:13:46.446Z,77.84
2018-10-16T17:16:50.691Z,78.44
2018-10-16T17:19:54.601Z,77.57
2018-10-16T17:22:58.767Z,78.39
2018-10-16T17:26:02.960Z,78.43
2018-10-16T17:29:06.885Z,78.61
2018-10-16T17:32:10.834Z,77.82
2018-10-16T17:35:15.110Z,77.66
2018-10-16T17:38:19.041Z,77.68
2018-10-16T17:41:22.954Z,77.72
2018-10-16T17:44:27.218Z,78.41
2018-10-16T17:47:31.165Z,78.40
2018-10-16T17:50:35.271Z,78.49
2018-10-16T17:53:39.202Z,78.27
2018-10-16T17:56:43.438Z,78.82
2018-10-16T17:59:47.342Z,78.08
2018-10-16T18:02:51.495Z,78.87
2018-10-16T18:05:55.577Z,77.95
2018-10-16T18:08:59.539Z,78.74
2018-10-16T18:12:03.849Z,78.39
2018-10-16T18:15:09.698Z,78.15
2018-10-16T18:18:13.830Z,78.54
2018-10-16T18:21:17.948Z,78.80
2018-10-16T18:24:21.874Z,78.42
2018-10-16T18:27:25.803Z,78.72
2018-10-16T18:30:29.714Z,78.26
2018-10-16T18:33:33.651Z,78.51
2018-10-16T18:36:37.567Z,78.29
2018-10-16T18:39:41.587Z,78.00
2018-10-16T18:42:45.937Z,77.81
2018-10-16T18:45:49.872Z,78.85
2018-10-16T18:48:53.808Z,78.46
2018-10-16T18:51:57.951Z,78.08
2018-10-16T18:55:01.855Z,77.77
2018-10-16T18:58:06.338Z,78.04
2018-10-16T19:01:10.232Z,78.22
2018-10-16T19:04:14.186Z,78.52
2018-10-16T19:07:18.331Z,78.69
2018-10-16T19:10:22.251Z,78.33
2018-10-16T19:13:26.307Z,78.05
2018-10-16T19:16:30.214Z,78.34
2018-10-16T19:19:34.144Z,78.69
2018-10-16T19:22:38.087Z,78.28
2018-10-16T19:25:42.027Z,78.23
2018-10-16T19:28:45.955Z,78.45
2018-10-16T19:31:49.884Z,78.55
2018-10-16T19:34:54.031Z,78.12
2018-10-16T19:37:58.061Z,78.41
2018-10-16T19:41:02.103Z,78.75
2018-10-16T19:44:06.090Z,78.40
2018-10-16T19:47:10.026Z,78.42
2018-10-16T19:50:14.279Z,78.14
2018-10-16T19:53:18.267Z,78.38
2018-10-16T19:56:22.199Z,78.17
2018-10-16T19:59:26.106Z,78.10
2018-10-16T20:02:30.040Z,77.98
2018-10-16T20:05:33.982Z,78.33
2018-10-16T20:08:37.898Z,78.55
2018-10-16T20:11:42.033Z,78.88
2018-10-16T20:14:46.143Z,78.28
2018-10-16T20:17:50.071Z,79.05
2018-10-16T20:20:54.045Z,78.37
2018-10-16T20:23:58.138Z,78.33
2018-10-16T20:27:02.399Z,78.17
2018-10-16T20:30:07.434Z,78.93
2018-10-16T20:33:11.926Z,78.61
2018-10-16T20:36:16.191Z,77.90
2018-10-16T20:39:20.335Z,78.32
2018-10-16T20:42:24.246Z,79.37
2018-10-16T20:45:28.196Z,78.20
2018-10-16T20:48:32.139Z,78.25
2018-10-16T20:51:36.954Z,78.22
2018-10-16T20:54:40.883Z,79.28
2018-10-16T20:57:44.837Z,79.02
2018-10-16T21:01:05.775Z,78.85
2018-10-16T21:04:16.903Z,78.26
2018-10-16T21:07:21.777Z,78.57
2018-10-16T21:10:27.978Z,79.12
2018-10-16T21:13:32.652Z,78.77
2018-10-16T21:16:37.034Z,78.99
2018-10-16T21:19:41.499Z,78.89
2018-10-16T21:22:46.013Z,78.91
2018-10-16T21:25:50.396Z,78.68
2018-10-16T21:28:54.852Z,79.08
2018-10-16T21:31:59.416Z,78.57
2018-10-16T21:35:05.040Z,78.28
2018-10-16T21:38:09.673Z,78.92
2018-10-16T21:41:14.104Z,78.47
2018-10-16T21:44:19.002Z,79.73
2018-10-16T21:47:23.346Z,79.73
2018-10-16T21:50:27.693Z,78.45
2018-10-16T21:53:32.038Z,79.56
2018-10-16T21:56:36.336Z,78.61
2018-10-16T21:59:40.424Z,79.31
2018-10-16T22:02:50.068Z,79.04
2018-10-16T22:05:54.501Z,78.80
2018-10-16T22:08:58.703Z,79.81
2018-10-16T22:12:02.963Z,79.81
2018-10-16T22:15:07.083Z,79.79
2018-10-16T22:18:11.368Z,79.46
2018-10-16T22:21:15.526Z,80.07
2018-10-16T22:24:19.482Z,80.21
2018-10-16T22:27:23.649Z,80.54
2018-10-16T22:30:27.535Z,79.67
2018-10-16T22:33:32.202Z,79.49
2018-10-16T22:36:36.564Z,80.44
2018-10-16T22:39:40.725Z,80.32
2018-10-16T22:42:44.792Z,79.38
2018-10-16T22:45:49.365Z,80.42
2018-10-16T22:48:53.712Z,80.16
2018-10-16T22:51:58.106Z,80.23
2018-10-16T22:55:02.339Z,80.20
2018-10-16T22:58:06.670Z,79.74
2018-10-16T23:01:10.584Z,80.58
2018-10-16T23:04:14.533Z,80.31
2018-10-16T23:07:18.734Z,80.41
2018-10-16T23:10:22.557Z,80.43
2018-10-16T23:13:26.430Z,80.55
2018-10-16T23:16:30.996Z,80.70
2018-10-16T23:19:35.207Z,80.23
2018-10-16T23:22:39.398Z,80.36
2018-10-16T23:25:43.580Z,80.64
2018-10-16T23:28:47.415Z,80.78
2018-10-16T23:31:55.573Z,81.09
2018-10-16T23:35:05.513Z,80.16
2018-10-16T23:38:09.593Z,80.44
2018-10-16T23:41:13.596Z,80.63
2018-10-16T23:44:17.652Z,80.55
2018-10-16T23:47:21.592Z,80.51
2018-10-16T23:50:25.742Z,80.89
2018-10-16T23:53:29.657Z,80.84
2018-10-16T23:56:33.594Z,80.02
2018-10-16T23:59:37.537Z,80.91
